createdAt,value
2023-04-21T00:01:41.135Z,41.23
2023-04-21T00:04:10.330Z,41.16
2023-04-21T00:06:41.634Z,41.36
2023-04-21T00:09:11.042Z,41.25
2023-04-21T00:11:39.064Z,41.01
2023-04-21T00:14:07.070Z,40.39
2023-04-21T00:16:36.097Z,40.29
2023-04-21T00:19:07.078Z,40.22
2023-04-21T00:21:35.729Z,40.00
2023-04-21T00:24:04.696Z,40.39
2023-04-21T00:26:32.604Z,39.97
2023-04-21T00:29:01.179Z,40.01
2023-04-21T00:31:29.627Z,39.88
2023-04-21T00:33:59.067Z,39.96
2023-04-21T00:36:28.749Z,40.22
2023-04-21T00:38:56.809Z,39.81
2023-04-21T00:41:25.014Z,39.77
2023-04-21T00:44:06.799Z,39.95
2023-04-21T00:46:35.226Z,39.57
2023-04-21T00:49:06.927Z,39.40
2023-04-21T00:51:35.985Z,39.07
2023-04-21T00:54:05.066Z,39.10
2023-04-21T00:56:34.045Z,39.27
2023-04-21T00:59:03.725Z,40.19
2023-04-21T01:01:32.658Z,40.02
2023-04-21T01:04:01.979Z,39.62
2023-04-21T01:06:34.265Z,39.55
2023-04-21T01:09:03.997Z,39.63
2023-04-21T01:11:32.398Z,39.54
2023-04-21T01:14:01.311Z,40.22
2023-04-21T01:16:29.770Z,40.36
2023-04-21T01:18:59.167Z,40.41
2023-04-21T01:21:28.768Z,40.53
2023-04-21T01:23:57.013Z,40.09
2023-04-21T01:26:25.023Z,39.82
2023-04-21T01:28:52.998Z,40.23
2023-04-21T01:31:21.191Z,40.60
2023-04-21T01:33:49.224Z,40.33
2023-04-21T01:36:17.731Z,40.08
2023-04-21T01:38:45.881Z,39.96
2023-04-21T01:41:14.023Z,39.99
2023-04-21T01:43:42.082Z,39.98
2023-04-21T01:46:10.740Z,40.05
2023-04-21T01:48:39.201Z,40.31
2023-04-21T01:51:07.780Z,40.40
2023-04-21T01:53:35.831Z,40.29
2023-04-21T01:56:04.109Z,40.07
2023-04-21T01:58:33.453Z,40.09
2023-04-21T02:01:02.050Z,39.96
2023-04-21T02:03:30.840Z,40.36
2023-04-21T02:05:59.293Z,41.08
2023-04-21T02:08:27.279Z,40.59
2023-04-21T02:10:55.427Z,40.26
2023-04-21T02:13:24.533Z,40.13
2023-04-21T02:16:02.488Z,40.35
2023-04-21T02:18:34.791Z,40.48
2023-04-21T02:21:03.175Z,40.33
2023-04-21T02:23:31.649Z,40.32
2023-04-21T02:25:59.824Z,40.81
2023-04-21T02:28:27.804Z,40.83
2023-04-21T02:30:55.937Z,41.25
2023-04-21T02:33:24.140Z,41.27
2023-04-21T02:35:52.342Z,41.21
2023-04-21T02:41:07.125Z,49.51
2023-04-21T02:43:35.485Z,47.19
2023-04-21T02:46:09.737Z,46.72
2023-04-21T02:48:37.819Z,46.16
2023-04-21T02:51:14.225Z,46.09
2023-04-21T02:53:43.755Z,45.73
2023-04-21T02:56:12.409Z,45.13
2023-04-21T02:58:42.248Z,45.27
2023-04-21T03:01:11.568Z,45.05
2023-04-21T03:03:39.740Z,44.74
2023-04-21T03:06:07.983Z,44.69
2023-04-21T03:08:36.364Z,44.55
2023-04-21T03:11:04.375Z,44.73
2023-04-21T03:13:35.413Z,45.19
2023-04-21T03:16:03.648Z,45.31
2023-04-21T03:18:34.896Z,44.73
2023-04-21T03:21:03.424Z,44.79
2023-04-21T03:23:31.736Z,44.69
2023-04-21T03:25:59.823Z,44.57
2023-04-21T03:28:27.832Z,44.44
2023-04-21T03:30:56.122Z,44.61
2023-04-21T03:33:24.099Z,44.25
2023-04-21T03:35:52.157Z,44.11
2023-04-21T03:38:20.220Z,44.05
2023-04-21T03:40:48.868Z,44.04
2023-04-21T03:43:19.395Z,44.26
2023-04-21T03:45:47.712Z,44.03
2023-04-21T03:48:16.168Z,44.13
2023-04-21T03:50:46.270Z,44.19
2023-04-21T03:53:14.232Z,43.68
2023-04-21T03:55:42.361Z,43.60
2023-04-21T03:58:10.722Z,43.41
2023-04-21T04:00:38.644Z,43.22
2023-04-21T04:03:07.699Z,42.61
2023-04-21T04:05:36.445Z,42.61
2023-04-21T04:08:04.864Z,43.03
2023-04-21T04:10:32.766Z,43.53
2023-04-21T04:13:01.359Z,42.73
2023-04-21T04:15:29.439Z,42.12
2023-04-21T04:18:03.717Z,42.26
2023-04-21T04:20:32.541Z,42.22
2023-04-21T04:23:00.911Z,42.05
2023-04-21T04:25:29.211Z,41.83
2023-04-21T04:27:57.480Z,42.11
2023-04-21T04:30:28.017Z,42.01
2023-04-21T04:32:58.106Z,42.12
2023-04-21T04:35:28.402Z,41.97
2023-04-21T04:37:57.978Z,41.83
2023-04-21T04:40:25.995Z,41.20
2023-04-21T04:42:55.254Z,40.32
2023-04-21T04:45:23.521Z,40.09
2023-04-21T04:47:51.629Z,39.80
2023-04-21T04:50:19.672Z,39.55
2023-04-21T04:52:49.164Z,39.52
2023-04-21T04:55:17.259Z,39.68
2023-04-21T04:57:45.596Z,39.68
2023-04-21T05:00:14.533Z,38.97
2023-04-21T05:02:43.601Z,38.85
2023-04-21T05:05:11.720Z,38.83
2023-04-21T05:07:40.509Z,39.14
2023-04-21T05:10:10.865Z,39.22
2023-04-21T05:12:39.575Z,38.74
2023-04-21T05:15:08.851Z,38.42
2023-04-21T05:17:37.803Z,38.77
2023-04-21T05:20:07.301Z,39.06
2023-04-21T05:22:39.433Z,39.12
2023-04-21T05:25:09.970Z,39.14
2023-04-21T05:27:38.500Z,38.72
2023-04-21T05:30:07.550Z,38.27
2023-04-21T05:32:36.647Z,37.88
2023-04-21T05:35:08.407Z,37.32
2023-04-21T05:37:36.626Z,36.77
2023-04-21T05:40:05.515Z,36.79
2023-04-21T05:42:33.803Z,36.22
2023-04-21T05:45:01.857Z,35.38
2023-04-21T05:47:30.362Z,34.99
2023-04-21T05:49:58.362Z,34.43
2023-04-21T05:52:26.339Z,34.27
2023-04-21T05:54:56.259Z,33.69
2023-04-21T05:57:24.205Z,33.59
2023-04-21T05:59:52.377Z,33.48
2023-04-21T06:02:20.834Z,33.66
2023-04-21T06:04:49.034Z,33.49
2023-04-21T06:07:18.860Z,33.22
2023-04-21T06:09:51.143Z,33.28
2023-04-21T06:12:20.263Z,33.48
2023-04-21T06:14:56.718Z,33.64
2023-04-21T06:17:26.516Z,33.62
2023-04-21T06:19:56.192Z,33.87
2023-04-21T06:22:28.498Z,34.09
2023-04-21T06:24:58.331Z,33.78
2023-04-21T06:27:26.633Z,33.53
2023-04-21T06:29:56.183Z,33.20
2023-04-21T06:32:24.140Z,32.95
2023-04-21T06:34:52.169Z,32.46
2023-04-21T06:37:20.276Z,31.71
2023-04-21T06:39:48.458Z,30.68
2023-04-21T06:42:16.438Z,29.76
2023-04-21T06:44:44.509Z,29.23
2023-04-21T06:47:12.581Z,28.73
2023-04-21T06:49:40.836Z,28.09
2023-04-21T06:52:08.778Z,27.04
2023-04-21T06:54:38.401Z,27.39
2023-04-21T06:57:06.742Z,28.27
2023-04-21T06:59:34.805Z,28.45
2023-04-21T07:02:02.840Z,27.83
2023-04-21T07:04:32.440Z,28.14
2023-04-21T07:07:03.061Z,28.11
2023-04-21T07:09:33.992Z,27.92
2023-04-21T07:12:03.063Z,27.94
2023-04-21T07:14:31.205Z,27.98
2023-04-21T07:16:59.559Z,27.98
2023-04-21T07:19:27.718Z,27.69
2023-04-21T07:21:56.012Z,27.88
2023-04-21T07:24:24.212Z,27.50
2023-04-21T07:26:52.283Z,27.46
2023-04-21T07:29:20.562Z,27.26
2023-04-21T07:31:49.024Z,27.31
2023-04-21T07:34:17.221Z,27.04
2023-04-21T07:36:45.145Z,26.73
2023-04-21T07:39:13.112Z,26.51
2023-04-21T07:41:41.177Z,26.39
2023-04-21T07:44:09.145Z,26.07
2023-04-21T07:46:38.575Z,25.82
2023-04-21T07:49:06.849Z,25.70
2023-04-21T07:51:36.763Z,25.82
2023-04-21T07:54:04.770Z,26.07
2023-04-21T07:56:32.746Z,25.75
2023-04-21T07:59:00.771Z,26.19
2023-04-21T08:01:28.650Z,26.09
2023-04-21T08:03:56.732Z,26.06
2023-04-21T08:06:25.098Z,26.41
2023-04-21T08:08:55.054Z,26.66
2023-04-21T08:11:23.144Z,26.57
2023-04-21T08:13:51.715Z,26.94
2023-04-21T08:16:19.882Z,26.81
2023-04-21T08:18:48.012Z,26.82
2023-04-21T08:21:16.384Z,26.74
2023-04-21T08:23:44.370Z,26.36
2023-04-21T08:26:13.370Z,26.65
2023-04-21T08:28:41.462Z,27.00
2023-04-21T08:31:09.662Z,27.34
2023-04-21T08:33:43.867Z,27.41
2023-04-21T08:36:28.335Z,27.58
2023-04-21T08:38:57.444Z,27.83
2023-04-21T08:41:26.406Z,27.96
2023-04-21T08:43:54.443Z,28.29
2023-04-21T08:46:22.752Z,28.23
2023-04-21T08:48:52.254Z,28.05
2023-04-21T08:51:24.648Z,27.53
2023-04-21T08:53:54.055Z,27.42
2023-04-21T08:56:22.236Z,27.38
2023-04-21T08:58:50.256Z,27.35
2023-04-21T09:01:18.354Z,27.29
2023-04-21T09:03:47.197Z,27.18
2023-04-21T09:06:16.648Z,27.08
2023-04-21T09:08:53.822Z,27.32
2023-04-21T09:11:21.955Z,27.46
2023-04-21T09:13:49.904Z,27.68
2023-04-21T09:16:20.287Z,28.29
2023-04-21T09:18:48.590Z,28.37
2023-04-21T09:21:17.617Z,28.91
2023-04-21T09:23:50.213Z,29.55
2023-04-21T09:26:19.768Z,29.61
2023-04-21T09:28:48.349Z,29.29
2023-04-21T09:31:19.938Z,29.92
2023-04-21T09:36:22.366Z,29.80
2023-04-21T09:41:33.294Z,29.91
2023-04-21T09:44:01.796Z,29.69
2023-04-21T09:46:32.780Z,30.09
2023-04-21T09:49:01.568Z,30.03
2023-04-21T09:51:49.258Z,30.00
2023-04-21T09:54:29.640Z,30.02
2023-04-21T09:57:00.154Z,29.98
2023-04-21T09:59:38.130Z,30.15
2023-04-21T10:02:07.281Z,30.43
2023-04-21T10:04:36.746Z,30.88
2023-04-21T10:07:05.721Z,30.60
2023-04-21T10:09:45.562Z,30.37
2023-04-21T10:12:13.553Z,30.46
2023-04-21T10:14:42.732Z,30.70
2023-04-21T10:17:10.936Z,30.79
2023-04-21T10:19:49.239Z,30.96
2023-04-21T10:22:27.638Z,30.77
2023-04-21T10:24:57.057Z,30.65
2023-04-21T10:27:36.149Z,30.29
2023-04-21T10:30:23.483Z,29.79
2023-04-21T10:33:02.843Z,29.21
2023-04-21T10:36:01.068Z,29.26
2023-04-21T10:38:41.828Z,29.27
2023-04-21T10:41:29.560Z,28.71
2023-04-21T10:44:07.756Z,28.41
2023-04-21T10:46:37.170Z,28.16
2023-04-21T10:49:13.165Z,28.10
2023-04-21T10:51:59.532Z,28.15
2023-04-21T10:54:36.801Z,28.31
2023-04-21T10:57:06.619Z,28.82
2023-04-21T10:59:35.908Z,28.37
2023-04-21T11:02:06.427Z,28.44
2023-04-21T11:04:35.360Z,28.36
2023-04-21T11:07:14.357Z,28.44
2023-04-21T11:09:43.393Z,27.43
2023-04-21T11:12:13.850Z,26.43
2023-04-21T11:14:43.507Z,26.10
2023-04-21T11:17:12.837Z,26.00
2023-04-21T11:19:41.331Z,26.18
2023-04-21T11:22:09.338Z,26.04
2023-04-21T11:24:37.602Z,25.79
2023-04-21T11:27:08.556Z,25.48
2023-04-21T11:29:36.547Z,25.54
2023-04-21T11:32:09.509Z,25.05
2023-04-21T11:34:38.417Z,25.25
2023-04-21T11:37:10.786Z,24.88
2023-04-21T11:39:40.896Z,25.08
2023-04-21T11:42:08.894Z,25.39
2023-04-21T11:44:38.876Z,25.17
2023-04-21T11:47:20.481Z,25.32
2023-04-21T11:49:56.846Z,25.57
2023-04-21T11:52:29.319Z,25.76
2023-04-21T11:55:13.122Z,25.94
2023-04-21T11:57:41.140Z,26.17
2023-04-21T12:00:14.667Z,26.20
2023-04-21T12:02:43.271Z,26.61
2023-04-21T12:05:12.682Z,26.24
2023-04-21T12:07:43.244Z,26.10
2023-04-21T12:10:16.687Z,26.37
2023-04-21T12:12:44.903Z,26.34
2023-04-21T12:15:17.533Z,26.26
2023-04-21T12:17:45.946Z,26.09
2023-04-21T12:20:21.680Z,25.84
2023-04-21T12:22:50.196Z,25.75
2023-04-21T12:25:18.181Z,25.39
2023-04-21T12:27:52.593Z,25.37
2023-04-21T12:30:21.225Z,25.18
2023-04-21T12:32:49.431Z,24.92
2023-04-21T12:35:17.557Z,24.76
2023-04-21T12:37:45.707Z,24.04
2023-04-21T12:40:13.703Z,24.05
2023-04-21T12:42:41.850Z,24.06
2023-04-21T12:45:10.109Z,23.97
2023-04-21T12:47:39.385Z,23.92
2023-04-21T12:50:08.338Z,23.89
2023-04-21T12:52:36.423Z,23.56
2023-04-21T12:55:04.752Z,23.14
2023-04-21T12:57:33.393Z,23.62
2023-04-21T13:00:01.476Z,23.48
2023-04-21T13:02:31.370Z,23.56
2023-04-21T13:05:00.191Z,23.98
2023-04-21T13:07:31.468Z,24.04
2023-04-21T13:09:59.504Z,24.48
2023-04-21T13:12:27.426Z,24.26
2023-04-21T13:14:55.543Z,23.66
2023-04-21T13:17:23.617Z,23.03
2023-04-21T13:19:52.088Z,22.91
2023-04-21T13:22:20.163Z,23.29
2023-04-21T13:24:48.321Z,23.42
2023-04-21T13:27:16.363Z,23.00
2023-04-21T13:29:44.310Z,22.83
2023-04-21T13:32:12.299Z,23.09
2023-04-21T13:34:40.792Z,23.20
2023-04-21T13:37:11.153Z,23.36
2023-04-21T13:39:40.070Z,23.10
2023-04-21T13:42:08.143Z,23.01
2023-04-21T13:44:36.158Z,23.09
2023-04-21T13:47:05.552Z,23.30
2023-04-21T13:49:35.477Z,22.95
2023-04-21T13:52:03.419Z,23.35
2023-04-21T13:54:31.935Z,23.34
2023-04-21T13:57:00.173Z,23.25
2023-04-21T13:59:28.436Z,23.46
2023-04-21T14:01:56.453Z,23.44
2023-04-21T14:04:24.501Z,23.05
2023-04-21T14:06:52.924Z,23.19
2023-04-21T14:09:21.645Z,23.28
2023-04-21T14:11:49.577Z,23.40
2023-04-21T14:14:27.682Z,23.31
2023-04-21T14:17:08.476Z,22.95
2023-04-21T14:19:37.109Z,23.18
2023-04-21T14:22:06.806Z,23.09
2023-04-21T14:24:35.971Z,23.19
2023-04-21T14:27:05.864Z,23.18
2023-04-21T14:29:34.627Z,22.94
2023-04-21T14:32:03.130Z,22.97
2023-04-21T14:34:32.036Z,22.82
2023-04-21T14:37:00.697Z,22.79
2023-04-21T14:39:28.885Z,23.14
2023-04-21T14:41:57.014Z,23.56
2023-04-21T14:44:25.207Z,24.28
2023-04-21T14:47:05.756Z,26.26
2023-04-21T14:49:40.516Z,26.75
2023-04-21T14:52:11.226Z,27.61
2023-04-21T14:54:39.478Z,27.72
2023-04-21T14:58:01.803Z,31.99
2023-04-21T15:00:31.871Z,30.70
2023-04-21T15:03:00.188Z,29.99
2023-04-21T15:05:29.317Z,29.59
2023-04-21T15:07:57.335Z,29.68
2023-04-21T15:10:25.321Z,29.46
2023-04-21T15:12:53.562Z,29.57
2023-04-21T15:15:21.707Z,29.89
2023-04-21T15:17:49.786Z,30.01
2023-04-21T15:20:17.848Z,30.35
2023-04-21T15:22:45.828Z,29.94
2023-04-21T15:25:14.143Z,29.85
2023-04-21T15:27:42.153Z,29.76
2023-04-21T15:30:10.976Z,29.62
2023-04-21T15:32:39.357Z,29.74
2023-04-21T15:35:07.659Z,29.56
2023-04-21T15:37:36.584Z,29.84
2023-04-21T15:40:05.230Z,30.30
2023-04-21T15:42:36.299Z,31.28
2023-04-21T15:45:04.268Z,32.97
2023-04-21T15:47:32.915Z,32.61
2023-04-21T15:50:01.025Z,32.79
2023-04-21T15:52:29.316Z,33.30
2023-04-21T15:54:57.407Z,32.66
2023-04-21T15:57:29.802Z,32.51
2023-04-21T15:59:58.542Z,32.98
2023-04-21T16:02:26.908Z,32.65
2023-04-21T16:04:55.197Z,32.62
2023-04-21T16:07:23.693Z,32.52
2023-04-21T16:09:51.807Z,32.59
2023-04-21T16:12:20.035Z,33.07
2023-04-21T16:14:57.714Z,33.04
2023-04-21T16:17:32.664Z,33.10
2023-04-21T16:20:00.703Z,33.20
2023-04-21T16:22:28.790Z,32.81
2023-04-21T16:24:58.598Z,32.87
2023-04-21T16:27:26.686Z,32.85
2023-04-21T16:29:54.672Z,32.95
2023-04-21T16:32:22.746Z,33.20
2023-04-21T16:34:50.807Z,33.30
2023-04-21T16:37:18.792Z,33.46
2023-04-21T16:39:47.023Z,33.85
2023-04-21T16:42:15.648Z,33.88
2023-04-21T16:44:43.608Z,34.44
2023-04-21T16:47:11.632Z,34.59
2023-04-21T16:49:39.848Z,34.68
2023-04-21T16:52:07.838Z,34.84
2023-04-21T16:54:36.005Z,33.68
2023-04-21T16:57:04.242Z,34.05
2023-04-21T16:59:33.299Z,34.09
2023-04-21T17:02:01.598Z,33.48
2023-04-21T17:04:29.896Z,33.34
2023-04-21T17:06:58.013Z,33.00
2023-04-21T17:09:25.983Z,33.34
2023-04-21T17:11:54.119Z,34.04
2023-04-21T17:14:23.676Z,34.10
2023-04-21T17:16:51.896Z,34.11
2023-04-21T17:19:20.212Z,33.85
2023-04-21T17:21:48.294Z,34.11
2023-04-21T17:24:16.447Z,34.39
2023-04-21T17:26:44.548Z,34.30
2023-04-21T17:29:12.804Z,34.34
2023-04-21T17:31:41.467Z,34.36
2023-04-21T17:34:09.624Z,34.14
2023-04-21T17:36:39.533Z,33.99
2023-04-21T17:39:08.464Z,33.53
2023-04-21T17:41:37.259Z,33.75
2023-04-21T17:44:05.456Z,34.44
2023-04-21T17:46:34.000Z,35.03
2023-04-21T17:49:03.460Z,35.65
2023-04-21T17:51:32.040Z,35.85
2023-04-21T17:54:00.073Z,35.54
2023-04-21T17:56:28.662Z,35.42
2023-04-21T17:58:56.668Z,35.14
2023-04-21T18:01:24.718Z,35.23
2023-04-21T18:06:23.850Z,34.88
2023-04-21T18:08:52.152Z,35.13
2023-04-21T18:11:20.597Z,34.63
2023-04-21T18:13:48.681Z,34.68
2023-04-21T18:16:19.526Z,34.70
2023-04-21T18:18:47.653Z,34.21
2023-04-21T18:21:16.276Z,34.96
2023-04-21T18:23:46.022Z,34.84
2023-04-21T18:26:14.156Z,34.54
2023-04-21T18:28:42.152Z,34.55
2023-04-21T18:31:10.347Z,34.26
2023-04-21T18:33:38.420Z,34.28
2023-04-21T18:36:06.665Z,34.80
2023-04-21T18:38:34.637Z,34.61
2023-04-21T18:41:03.020Z,35.12
2023-04-21T18:43:31.500Z,35.03
2023-04-21T18:45:59.623Z,35.15
2023-04-21T18:48:27.491Z,35.15
2023-04-21T18:50:55.406Z,34.88
2023-04-21T18:53:23.471Z,35.12
2023-04-21T18:55:51.652Z,35.04
2023-04-21T18:58:19.948Z,34.74
2023-04-21T19:00:48.194Z,35.21
2023-04-21T19:03:16.273Z,34.82
2023-04-21T19:05:45.716Z,34.86
2023-04-21T19:08:14.942Z,35.04
2023-04-21T19:10:43.640Z,34.88
2023-04-21T19:13:13.514Z,35.05
2023-04-21T19:15:41.456Z,35.16
2023-04-21T19:18:09.566Z,34.91
2023-04-21T19:20:37.647Z,34.97
2023-04-21T19:23:05.845Z,35.01
2023-04-21T19:25:33.847Z,35.28
2023-04-21T19:28:02.142Z,35.75
2023-04-21T19:30:30.493Z,35.27
2023-04-21T19:32:58.640Z,35.30
2023-04-21T19:35:26.999Z,35.24
2023-04-21T19:37:59.701Z,35.16
2023-04-21T19:40:30.752Z,34.74
2023-04-21T19:43:01.996Z,33.97
2023-04-21T19:45:29.988Z,34.23
2023-04-21T19:47:58.080Z,33.88
2023-04-21T19:50:26.032Z,34.21
2023-04-21T19:52:53.988Z,33.99
2023-04-21T19:55:22.442Z,34.59
2023-04-21T19:57:50.451Z,34.26
2023-04-21T20:00:18.525Z,33.72
2023-04-21T20:02:46.702Z,33.58
2023-04-21T20:05:14.975Z,33.92
2023-04-21T20:07:42.967Z,33.58
2023-04-21T20:10:11.324Z,33.34
2023-04-21T20:12:39.618Z,33.75
2023-04-21T20:15:08.700Z,33.51
2023-04-21T20:17:37.204Z,33.51
2023-04-21T20:20:06.365Z,33.74
2023-04-21T20:22:35.471Z,33.88
2023-04-21T20:25:04.292Z,34.02
2023-04-21T20:27:32.380Z,33.90
2023-04-21T20:30:00.288Z,33.99
2023-04-21T20:32:28.512Z,34.27
2023-04-21T20:34:56.617Z,34.01
2023-04-21T20:37:24.814Z,33.85
2023-04-21T20:39:52.862Z,34.05
2023-04-21T20:42:21.894Z,34.18
2023-04-21T20:44:49.857Z,34.15
2023-04-21T20:47:17.802Z,34.65
2023-04-21T20:49:47.562Z,34.58
2023-04-21T20:52:16.075Z,34.81
2023-04-21T20:54:44.333Z,34.95
2023-04-21T20:57:12.305Z,35.08
2023-04-21T20:59:40.604Z,35.25
2023-04-21T21:02:08.990Z,35.09
2023-04-21T21:04:37.328Z,34.99
2023-04-21T21:07:05.677Z,35.20
2023-04-21T21:09:33.911Z,35.46
2023-04-21T21:12:02.416Z,35.01
2023-04-21T21:14:30.799Z,35.38
2023-04-21T21:16:58.773Z,35.82
2023-04-21T21:19:26.848Z,35.86
2023-04-21T21:21:57.668Z,35.55
2023-04-21T21:24:26.488Z,36.04
2023-04-21T21:26:54.484Z,36.30
2023-04-21T21:29:22.402Z,36.77
2023-04-21T21:31:50.693Z,37.07
2023-04-21T21:34:18.697Z,36.55
2023-04-21T21:36:46.664Z,37.12
2023-04-21T21:39:15.645Z,36.41
2023-04-21T21:41:43.669Z,36.49
2023-04-21T21:44:11.715Z,37.12
2023-04-21T21:46:39.762Z,37.17
2023-04-21T21:49:08.498Z,37.41
2023-04-21T21:51:36.408Z,37.28
2023-04-21T21:54:04.387Z,37.28
2023-04-21T21:56:32.316Z,37.00
2023-04-21T21:59:00.273Z,36.94
2023-04-21T22:01:28.264Z,37.18
2023-04-21T22:03:56.739Z,36.79
2023-04-21T22:06:26.904Z,37.12
2023-04-21T22:08:55.176Z,37.50
2023-04-21T22:11:23.397Z,37.44
2023-04-21T22:13:52.848Z,37.92
2023-04-21T22:16:20.788Z,37.95
2023-04-21T22:18:49.363Z,37.79
2023-04-21T22:21:17.581Z,37.75
2023-04-21T22:23:45.776Z,37.73
2023-04-21T22:26:13.673Z,37.65
2023-04-21T22:28:41.935Z,38.07
2023-04-21T22:31:10.641Z,37.76
2023-04-21T22:33:38.890Z,37.48
2023-04-21T22:36:09.975Z,37.48
2023-04-21T22:38:40.117Z,37.88
2023-04-21T22:41:08.074Z,37.98
2023-04-21T22:43:36.195Z,37.57
2023-04-21T22:46:04.452Z,37.89
2023-04-21T22:48:33.404Z,37.90
2023-04-21T22:51:01.798Z,37.80
2023-04-21T22:53:29.878Z,38.33
2023-04-21T22:55:57.892Z,37.97
2023-04-21T22:58:26.522Z,38.13
2023-04-21T23:00:54.724Z,38.13
2023-04-21T23:03:23.811Z,38.38
2023-04-21T23:05:51.928Z,38.53
2023-04-21T23:08:19.916Z,37.93
2023-04-21T23:10:47.939Z,37.96
2023-04-21T23:13:16.219Z,37.79
2023-04-21T23:15:44.233Z,38.14
2023-04-21T23:18:12.120Z,38.22
2023-04-21T23:20:40.072Z,38.38
2023-04-21T23:23:08.185Z,38.66
2023-04-21T23:25:36.290Z,38.90
2023-04-21T23:28:04.471Z,39.28
2023-04-21T23:30:32.440Z,39.30
2023-04-21T23:33:01.116Z,39.46
2023-04-21T23:35:29.419Z,39.55
2023-04-21T23:37:57.375Z,39.01
2023-04-21T23:40:25.216Z,38.78
2023-04-21T23:42:53.289Z,38.78
2023-04-21T23:45:21.313Z,38.78
2023-04-21T23:47:49.576Z,38.50
2023-04-21T23:50:17.737Z,38.34
2023-04-21T23:52:45.926Z,38.41
2023-04-21T23:55:13.973Z,38.65
2023-04-21T23:57:44.762Z,38.69
